Time;durP1;ratioP1;P1;durP2;ratioP2;P2;SDS_P1;SDS_P2;PMS_P1;PMS_P2;Temp;Humidity;BMP_temperature;BMP_pressure;BME280_temperature;BME280_humidity;BME280_pressure;Samples;Min_cycle;Max_cycle;Signal;HPM_P1;HPM_P2
2023/03/19 00:02:14;;;;;;;7.68;4.75;;;;;;;;;;5104044;28;20235;-68
2023/03/19 00:04:41;;;;;;;5.70;5.13;;;;;;;;;;5103613;28;20219;-68
2023/03/19 00:07:07;;;;;;;7.93;5.07;;;;;;;;;;5103707;28;20531;-68
2023/03/19 00:09:33;;;;;;;6.63;4.47;;;;;;;;;;5103618;28;20390;-68
2023/03/19 00:12:00;;;;;;;6.30;4.32;;;;;;;;;;5103863;28;20372;-67
2023/03/19 00:14:27;;;;;;;9.00;5.03;;;;;;;;;;5103669;28;20195;-68
2023/03/19 00:16:53;;;;;;;8.00;4.78;;;;;;;;;;5103514;28;20286;-68
2023/03/19 00:19:20;;;;;;;7.43;4.60;;;;;;;;;;5103452;28;20200;-68
2023/03/19 00:21:46;;;;;;;5.35;4.55;;;;;;;;;;5103388;28;20233;-68
2023/03/19 00:24:12;;;;;;;6.35;4.85;;;;;;;;;;5103632;28;20365;-68
2023/03/19 00:26:39;;;;;;;5.72;4.70;;;;;;;;;;5103444;28;20232;-68
2023/03/19 00:29:06;;;;;;;8.60;4.85;;;;;;;;;;5103247;28;20227;-68
2023/03/19 00:31:34;;;;;;;9.57;5.07;;;;;;;;;;5103143;28;20224;-70
2023/03/19 00:34:01;;;;;;;8.10;5.30;;;;;;;;;;5103112;28;20414;-67
2023/03/19 00:36:28;;;;;;;9.63;5.47;;;;;;;;;;5103317;28;20439;-67
2023/03/19 00:38:55;;;;;;;13.15;5.80;;;;;;;;;;5103031;28;20196;-67
2023/03/19 00:41:21;;;;;;;10.93;5.55;;;;;;;;;;5102987;28;20258;-67
2023/03/19 00:43:51;;;;;;;7.78;5.50;;;;;;;;;;5103087;28;20214;-68
2023/03/19 00:46:18;;;;;;;11.95;6.05;;;;;;;;;;5102902;28;20205;-67
2023/03/19 00:48:45;;;;;;;12.75;5.70;;;;;;;;;;5103282;28;20241;-67
2023/03/19 00:51:11;;;;;;;6.53;5.35;;;;;;;;;;5102846;28;20241;-67
2023/03/19 00:53:38;;;;;;;9.27;5.47;;;;;;;;;;5102937;28;20216;-69
2023/03/19 00:56:06;;;;;;;10.80;5.63;;;;;;;;;;5102859;28;20200;-69
2023/03/19 00:58:32;;;;;;;12.55;6.30;;;;;;;;;;5102915;28;20484;-69
2023/03/19 01:00:58;;;;;;;10.18;5.85;;;;;;;;;;5102453;28;20481;-68
2023/03/19 01:03:25;;;;;;;7.57;5.82;;;;;;;;;;5102855;28;20425;-69
2023/03/19 01:05:52;;;;;;;6.22;5.32;;;;;;;;;;5102991;28;20357;-69
2023/03/19 01:08:18;;;;;;;7.85;5.32;;;;;;;;;;5102682;28;20293;-68
2023/03/19 01:10:45;;;;;;;5.97;4.60;;;;;;;;;;5102368;28;20213;-69
2023/03/19 01:13:11;;;;;;;7.95;5.45;;;;;;;;;;5102373;28;20220;-69
2023/03/19 01:15:38;;;;;;;6.88;4.85;;;;;;;;;;5102511;28;20504;-68
2023/03/19 01:18:04;;;;;;;7.13;5.00;;;;;;;;;;5102773;28;20188;-69
2023/03/19 01:20:31;;;;;;;7.32;5.57;;;;;;;;;;5102592;28;20233;-69
2023/03/19 01:23:00;;;;;;;8.38;5.47;;;;;;;;;;5102537;28;20198;-69
2023/03/19 01:25:26;;;;;;;10.68;5.30;;;;;;;;;;5102148;28;20202;-69
2023/03/19 01:27:53;;;;;;;8.50;5.30;;;;;;;;;;5102319;28;20215;-69
2023/03/19 01:30:20;;;;;;;9.63;5.20;;;;;;;;;;5102037;28;20204;-69
2023/03/19 01:32:46;;;;;;;6.60;5.07;;;;;;;;;;5102201;28;20223;-69
2023/03/19 01:35:12;;;;;;;6.13;5.32;;;;;;;;;;5102350;28;20199;-69
2023/03/19 01:37:39;;;;;;;7.72;4.95;;;;;;;;;;5102156;28;20233;-69
2023/03/19 01:40:08;;;;;;;8.18;5.68;;;;;;;;;;5102171;28;20241;-69
2023/03/19 01:42:34;;;;;;;8.30;5.20;;;;;;;;;;5102089;28;20274;-69
2023/03/19 01:45:01;;;;;;;10.43;5.90;;;;;;;;;;5102443;28;20219;-69
2023/03/19 01:47:30;;;;;;;9.02;6.28;;;;;;;;;;5102555;28;20425;-69
2023/03/19 01:49:56;;;;;;;11.23;5.80;;;;;;;;;;5103151;28;20201;-69
2023/03/19 01:52:23;;;;;;;10.43;6.47;;;;;;;;;;5106513;28;20203;-69
2023/03/19 01:54:50;;;;;;;11.05;6.25;;;;;;;;;;5106270;28;20219;-69
2023/03/19 01:57:18;;;;;;;9.75;6.30;;;;;;;;;;5106219;28;20199;-69
2023/03/19 01:59:46;;;;;;;8.27;6.07;;;;;;;;;;5106165;28;20258;-69
2023/03/19 02:02:16;;;;;;;9.45;6.18;;;;;;;;;;5106186;28;20203;-69
2023/03/19 02:04:43;;;;;;;7.78;5.82;;;;;;;;;;5106187;28;20196;-69
2023/03/19 02:07:11;;;;;;;8.52;5.75;;;;;;;;;;5106170;28;20196;-69
2023/03/19 02:09:39;;;;;;;7.68;5.35;;;;;;;;;;5105606;28;20444;-69
2023/03/19 02:12:06;;;;;;;7.45;5.63;;;;;;;;;;5106150;28;20200;-69
2023/03/19 02:14:33;;;;;;;6.97;5.82;;;;;;;;;;5106002;28;20445;-69
2023/03/19 02:17:00;;;;;;;8.70;6.00;;;;;;;;;;5105881;28;20202;-69
2023/03/19 02:19:31;;;;;;;8.80;6.03;;;;;;;;;;5105772;28;20267;-69
2023/03/19 02:21:58;;;;;;;8.27;5.90;;;;;;;;;;5105799;28;20484;-69
2023/03/19 02:24:26;;;;;;;8.07;5.80;;;;;;;;;;5105737;28;20402;-69
2023/03/19 02:26:53;;;;;;;8.43;5.75;;;;;;;;;;5106083;28;20266;-69
2023/03/19 02:29:20;;;;;;;7.00;5.22;;;;;;;;;;5105733;28;20241;-69
2023/03/19 02:31:46;;;;;;;8.50;5.30;;;;;;;;;;5105647;28;20196;-69
2023/03/19 02:34:27;;;;;;;13.38;6.30;;;;;;;;;;5105610;28;20286;-69
2023/03/19 02:36:55;;;;;;;7.75;5.85;;;;;;;;;;5105310;28;20195;-69
2023/03/19 02:39:23;;;;;;;7.70;6.00;;;;;;;;;;5105538;28;20335;-69
2023/03/19 02:41:51;;;;;;;8.15;5.95;;;;;;;;;;5105295;28;20203;-69
2023/03/19 02:44:18;;;;;;;9.70;5.53;;;;;;;;;;5105494;28;20237;-69
2023/03/19 02:46:45;;;;;;;9.20;6.40;;;;;;;;;;5105241;28;20241;-69
2023/03/19 02:49:11;;;;;;;7.15;5.30;;;;;;;;;;5104797;28;20196;-69
2023/03/19 02:51:37;;;;;;;11.77;6.07;;;;;;;;;;5105207;28;20195;-69
2023/03/19 02:54:04;;;;;;;7.75;6.55;;;;;;;;;;5105243;28;20216;-69
2023/03/19 02:56:30;;;;;;;14.90;7.07;;;;;;;;;;5105284;28;20279;-69
2023/03/19 02:58:57;;;;;;;8.52;6.05;;;;;;;;;;5104879;28;20233;-69
2023/03/19 03:01:24;;;;;;;8.00;6.45;;;;;;;;;;5103483;28;20208;-69
2023/03/19 03:03:51;;;;;;;7.13;6.20;;;;;;;;;;5105188;28;20215;-69
2023/03/19 03:06:17;;;;;;;10.52;6.35;;;;;;;;;;5105090;28;20265;-69
2023/03/19 03:08:43;;;;;;;9.07;6.53;;;;;;;;;;5104832;28;20196;-69
2023/03/19 03:11:10;;;;;;;11.52;6.20;;;;;;;;;;5104818;28;20204;-69
2023/03/19 03:13:36;;;;;;;7.00;6.30;;;;;;;;;;5104751;28;20288;-69
2023/03/19 03:16:02;;;;;;;10.30;6.63;;;;;;;;;;5104911;28;20203;-69
2023/03/19 03:18:30;;;;;;;13.07;6.50;;;;;;;;;;5104851;28;20192;-69
2023/03/19 03:20:56;;;;;;;7.78;5.95;;;;;;;;;;5104550;28;20202;-69
2023/03/19 03:23:23;;;;;;;9.35;6.75;;;;;;;;;;5104566;28;20238;-69
2023/03/19 03:25:49;;;;;;;6.97;6.28;;;;;;;;;;5104543;28;20200;-69
2023/03/19 03:28:16;;;;;;;9.60;6.88;;;;;;;;;;5104255;28;20240;-69
2023/03/19 03:30:42;;;;;;;10.00;7.13;;;;;;;;;;5104638;28;20633;-69
2023/03/19 03:33:09;;;;;;;9.07;6.25;;;;;;;;;;5104662;28;20421;-69
2023/03/19 03:35:37;;;;;;;7.15;5.97;;;;;;;;;;5104384;28;20234;-69
2023/03/19 03:38:03;;;;;;;7.38;6.20;;;;;;;;;;5104365;28;20195;-69
2023/03/19 03:40:29;;;;;;;7.38;6.32;;;;;;;;;;5104168;28;20187;-69
2023/03/19 03:42:56;;;;;;;9.55;6.53;;;;;;;;;;5104239;28;20277;-69
2023/03/19 03:45:22;;;;;;;10.25;6.40;;;;;;;;;;5104363;28;20495;-69
2023/03/19 03:47:48;;;;;;;7.53;6.30;;;;;;;;;;5104283;28;20200;-69
2023/03/19 03:50:15;;;;;;;6.75;5.75;;;;;;;;;;5104004;28;20206;-69
2023/03/19 03:52:43;;;;;;;7.43;6.60;;;;;;;;;;5104448;28;20510;-69
2023/03/19 03:55:10;;;;;;;8.70;6.03;;;;;;;;;;5103905;28;20460;-69
2023/03/19 03:57:36;;;;;;;6.28;5.75;;;;;;;;;;5103729;28;20266;-69
2023/03/19 04:00:03;;;;;;;8.75;6.07;;;;;;;;;;5104062;28;20195;-69
2023/03/19 04:02:29;;;;;;;7.15;6.43;;;;;;;;;;5103722;28;20196;-69
2023/03/19 04:04:56;;;;;;;9.95;6.30;;;;;;;;;;5103852;28;20196;-69
2023/03/19 04:07:22;;;;;;;10.93;6.47;;;;;;;;;;5104105;28;20202;-69
2023/03/19 04:09:49;;;;;;;8.30;6.63;;;;;;;;;;5103471;28;20211;-69
2023/03/19 04:12:16;;;;;;;12.32;6.43;;;;;;;;;;5103386;28;20503;-69
2023/03/19 04:14:42;;;;;;;6.53;5.93;;;;;;;;;;5103395;28;20215;-69
2023/03/19 04:17:09;;;;;;;7.22;5.78;;;;;;;;;;5103860;28;20257;-67
2023/03/19 04:19:35;;;;;;;7.10;6.15;;;;;;;;;;5103161;28;20241;-69
2023/03/19 04:22:02;;;;;;;8.45;5.43;;;;;;;;;;5103514;28;20241;-68
2023/03/19 04:24:28;;;;;;;9.52;6.47;;;;;;;;;;5103344;28;20192;-67
2023/03/19 04:26:56;;;;;;;8.02;6.10;;;;;;;;;;5103464;28;20397;-67
2023/03/19 04:29:22;;;;;;;9.30;6.00;;;;;;;;;;5103541;28;20199;-67
2023/03/19 04:31:49;;;;;;;9.93;5.40;;;;;;;;;;5103185;28;20229;-67
2023/03/19 04:34:16;;;;;;;9.52;6.15;;;;;;;;;;5103115;28;20212;-67
2023/03/19 04:36:42;;;;;;;7.15;6.03;;;;;;;;;;5103173;28;20511;-67
2023/03/19 04:39:09;;;;;;;7.68;5.88;;;;;;;;;;5103052;28;20265;-67
2023/03/19 04:41:35;;;;;;;8.85;6.20;;;;;;;;;;5103200;28;20200;-69
2023/03/19 04:44:02;;;;;;;6.70;5.32;;;;;;;;;;5103197;28;20238;-69
2023/03/19 04:46:29;;;;;;;7.68;5.57;;;;;;;;;;5103185;28;20211;-69
2023/03/19 04:48:55;;;;;;;7.82;5.57;;;;;;;;;;5103054;28;20196;-69
2023/03/19 04:51:22;;;;;;;8.93;6.22;;;;;;;;;;5102937;28;20444;-69
2023/03/19 04:53:48;;;;;;;9.02;6.07;;;;;;;;;;5102677;28;20383;-69
2023/03/19 04:56:16;;;;;;;6.30;5.55;;;;;;;;;;5103056;28;20480;-69
2023/03/19 04:58:43;;;;;;;8.23;5.28;;;;;;;;;;5102955;28;20203;-69
2023/03/19 05:01:10;;;;;;;7.40;5.85;;;;;;;;;;5102536;28;20195;-69
2023/03/19 05:03:37;;;;;;;6.47;5.88;;;;;;;;;;5102809;28;20199;-69
2023/03/19 05:06:03;;;;;;;8.57;5.70;;;;;;;;;;5102625;28;20196;-69
2023/03/19 05:08:29;;;;;;;8.25;5.35;;;;;;;;;;5102544;28;20211;-67
2023/03/19 05:10:56;;;;;;;8.23;5.28;;;;;;;;;;5102315;28;20211;-67
2023/03/19 05:13:22;;;;;;;9.30;5.72;;;;;;;;;;5102681;28;20249;-69
2023/03/19 05:15:48;;;;;;;7.40;5.68;;;;;;;;;;5102437;28;20220;-71
2023/03/19 05:18:16;;;;;;;9.38;5.50;;;;;;;;;;5102451;28;20224;-69
2023/03/19 05:20:43;;;;;;;6.63;5.45;;;;;;;;;;5102917;28;20195;-69
2023/03/19 05:23:09;;;;;;;7.10;4.95;;;;;;;;;;5102955;28;20203;-70
2023/03/19 05:25:36;;;;;;;9.30;6.03;;;;;;;;;;5101940;28;20451;-70
2023/03/19 05:28:02;;;;;;;6.05;5.28;;;;;;;;;;5102490;28;20242;-70
2023/03/19 05:30:28;;;;;;;7.53;5.25;;;;;;;;;;5102077;28;20195;-70
2023/03/19 05:32:55;;;;;;;6.28;5.55;;;;;;;;;;5102509;28;20195;-70
2023/03/19 05:35:23;;;;;;;6.82;5.22;;;;;;;;;;5102070;28;20531;-70
2023/03/19 05:37:49;;;;;;;7.70;5.75;;;;;;;;;;5102544;28;20636;-70
2023/03/19 05:40:16;;;;;;;5.55;5.10;;;;;;;;;;5102292;28;20503;-70
2023/03/19 05:42:42;;;;;;;7.40;6.18;;;;;;;;;;5102292;28;20195;-70
2023/03/19 05:45:09;;;;;;;7.63;5.85;;;;;;;;;;5102279;28;20237;-70
2023/03/19 05:47:36;;;;;;;6.43;5.82;;;;;;;;;;5102072;28;20195;-70
2023/03/19 05:50:02;;;;;;;6.05;5.55;;;;;;;;;;5101901;28;20199;-70
2023/03/19 05:52:30;;;;;;;6.22;5.63;;;;;;;;;;5102332;28;20421;-70
2023/03/19 05:54:56;;;;;;;6.43;5.75;;;;;;;;;;5102188;28;20223;-69
2023/03/19 05:57:22;;;;;;;7.70;5.93;;;;;;;;;;5102145;28;20207;-69
2023/03/19 05:59:48;;;;;;;8.00;5.95;;;;;;;;;;5102098;28;20202;-69
2023/03/19 06:02:15;;;;;;;7.47;5.55;;;;;;;;;;5102088;28;20199;-70
2023/03/19 06:04:41;;;;;;;8.18;6.20;;;;;;;;;;5101839;28;20199;-70
2023/03/19 06:07:07;;;;;;;15.45;11.10;;;;;;;;;;5102183;28;20430;-70
2023/03/19 06:09:35;;;;;;;10.38;8.65;;;;;;;;;;5101904;28;20203;-70
2023/03/19 06:12:01;;;;;;;9.05;8.15;;;;;;;;;;5102031;28;20257;-70
2023/03/19 06:14:28;;;;;;;12.90;6.68;;;;;;;;;;5101911;28;20226;-70
2023/03/19 06:16:54;;;;;;;10.65;6.43;;;;;;;;;;5101872;28;20241;-70
2023/03/19 06:19:21;;;;;;;9.93;8.20;;;;;;;;;;5102444;28;20271;-70
2023/03/19 06:21:48;;;;;;;8.02;7.15;;;;;;;;;;5101897;28;20565;-70
2023/03/19 06:24:14;;;;;;;15.57;11.82;;;;;;;;;;5102050;28;20495;-70
2023/03/19 06:26:42;;;;;;;12.05;9.25;;;;;;;;;;5101950;28;20499;-70
2023/03/19 06:29:08;;;;;;;9.68;8.07;;;;;;;;;;5101637;28;20538;-70
2023/03/19 06:31:34;;;;;;;9.55;8.25;;;;;;;;;;5101642;28;20428;-70
2023/03/19 06:34:00;;;;;;;12.85;7.03;;;;;;;;;;5102018;28;20195;-71
2023/03/19 06:36:27;;;;;;;7.55;6.60;;;;;;;;;;5103933;28;20209;-71
2023/03/19 06:38:53;;;;;;;7.28;6.38;;;;;;;;;;5105986;28;20202;-71
2023/03/19 06:41:20;;;;;;;10.00;6.57;;;;;;;;;;5105335;28;20526;-71
2023/03/19 06:43:48;;;;;;;7.28;6.50;;;;;;;;;;5105385;28;20386;-71
2023/03/19 06:46:14;;;;;;;7.90;6.75;;;;;;;;;;5105856;28;20191;-71
2023/03/19 06:48:40;;;;;;;9.15;6.78;;;;;;;;;;5105314;28;20460;-71
2023/03/19 06:51:07;;;;;;;10.15;6.32;;;;;;;;;;5105285;28;20502;-71
2023/03/19 06:53:33;;;;;;;9.30;7.15;;;;;;;;;;5105462;28;20369;-70
2023/03/19 06:55:59;;;;;;;6.78;5.78;;;;;;;;;;5105144;28;20265;-70
2023/03/19 06:58:26;;;;;;;7.57;5.97;;;;;;;;;;5104692;28;20422;-70
2023/03/19 07:00:53;;;;;;;9.23;6.63;;;;;;;;;;5105139;28;20195;-70
2023/03/19 07:03:20;;;;;;;8.45;6.90;;;;;;;;;;5104977;28;20389;-71
2023/03/19 07:05:47;;;;;;;8.88;6.43;;;;;;;;;;5105093;28;20191;-71
2023/03/19 07:08:14;;;;;;;9.23;6.72;;;;;;;;;;5105034;28;20225;-71
2023/03/19 07:10:40;;;;;;;8.32;6.95;;;;;;;;;;5104780;28;20207;-70
2023/03/19 07:13:06;;;;;;;10.23;6.82;;;;;;;;;;5105347;28;20225;-70
2023/03/19 07:15:32;;;;;;;9.32;7.00;;;;;;;;;;5104666;28;20253;-70
2023/03/19 07:18:00;;;;;;;11.73;7.57;;;;;;;;;;5105019;28;20397;-70
2023/03/19 07:20:28;;;;;;;9.75;6.70;;;;;;;;;;5104626;28;20249;-70
2023/03/19 07:22:54;;;;;;;8.00;6.63;;;;;;;;;;5104648;28;20200;-70
2023/03/19 07:25:21;;;;;;;8.38;7.25;;;;;;;;;;5104674;28;20192;-70
2023/03/19 07:27:47;;;;;;;8.48;6.75;;;;;;;;;;5104289;28;20566;-71
2023/03/19 07:30:14;;;;;;;8.27;6.43;;;;;;;;;;5104706;28;20278;-70
2023/03/19 07:32:41;;;;;;;12.63;9.15;;;;;;;;;;5104610;28;20227;-72
2023/03/19 07:35:10;;;;;;;9.32;6.55;;;;;;;;;;5104467;28;20555;-71
2023/03/19 07:37:36;;;;;;;8.57;6.45;;;;;;;;;;5104427;28;20503;-71
2023/03/19 07:40:03;;;;;;;6.55;5.40;;;;;;;;;;5104279;28;20295;-71
2023/03/19 07:42:30;;;;;;;8.18;6.07;;;;;;;;;;5104263;28;20196;-71
2023/03/19 07:44:56;;;;;;;6.78;6.18;;;;;;;;;;5104605;28;20473;-71
2023/03/19 07:47:22;;;;;;;9.55;6.57;;;;;;;;;;5103813;28;20200;-71
2023/03/19 07:49:48;;;;;;;7.95;5.75;;;;;;;;;;5103985;28;20196;-70
2023/03/19 07:52:17;;;;;;;6.15;5.65;;;;;;;;;;5104221;28;20195;-71
2023/03/19 07:54:44;;;;;;;8.07;5.68;;;;;;;;;;5103952;28;20286;-71
2023/03/19 07:57:10;;;;;;;9.43;6.43;;;;;;;;;;5103807;28;20204;-70
2023/03/19 07:59:36;;;;;;;6.82;5.68;;;;;;;;;;5104250;28;20500;-71
2023/03/19 08:02:03;;;;;;;9.38;6.55;;;;;;;;;;5103924;28;20255;-71
2023/03/19 08:04:29;;;;;;;7.85;6.35;;;;;;;;;;5103940;28;20188;-71
2023/03/19 08:06:55;;;;;;;8.52;6.07;;;;;;;;;;5103812;28;20195;-70
2023/03/19 08:09:23;;;;;;;8.43;5.90;;;;;;;;;;5103690;28;20208;-70
2023/03/19 08:11:49;;;;;;;6.55;5.88;;;;;;;;;;5104268;28;20207;-70
2023/03/19 08:14:18;;;;;;;12.60;6.65;;;;;;;;;;5104051;28;20211;-71
2023/03/19 08:16:44;;;;;;;7.15;5.88;;;;;;;;;;5104210;28;20226;-70
2023/03/19 08:19:10;;;;;;;6.15;5.35;;;;;;;;;;5104067;28;20196;-71
2023/03/19 08:21:37;;;;;;;9.48;6.15;;;;;;;;;;5104099;28;20196;-70
2023/03/19 08:24:03;;;;;;;7.07;6.07;;;;;;;;;;5096811;28;20199;-70
2023/03/19 08:26:31;;;;;;;6.85;6.13;;;;;;;;;;5092489;28;20238;-70
2023/03/19 08:28:58;;;;;;;9.73;5.88;;;;;;;;;;5092490;28;20220;-70
2023/03/19 08:31:24;;;;;;;5.85;5.25;;;;;;;;;;5093033;28;20202;-70
2023/03/19 08:33:50;;;;;;;6.60;5.18;;;;;;;;;;5094121;28;20204;-70
2023/03/19 08:36:17;;;;;;;8.25;5.35;;;;;;;;;;5092707;28;20550;-70
2023/03/19 08:38:43;;;;;;;6.65;6.05;;;;;;;;;;5091768;28;20531;-70
2023/03/19 08:41:09;;;;;;;6.63;5.10;;;;;;;;;;5092019;28;20200;-70
2023/03/19 08:43:37;;;;;;;5.68;5.18;;;;;;;;;;5093803;28;20199;-70
2023/03/19 08:46:04;;;;;;;5.65;5.07;;;;;;;;;;5093513;28;20184;-71
2023/03/19 08:48:31;;;;;;;7.72;5.45;;;;;;;;;;5091794;28;20268;-70
2023/03/19 08:50:59;;;;;;;6.25;5.28;;;;;;;;;;5093336;28;20209;-70
2023/03/19 08:53:26;;;;;;;6.07;5.47;;;;;;;;;;5093327;28;20246;-70
2023/03/19 08:55:52;;;;;;;6.35;5.47;;;;;;;;;;5091497;28;20196;-70
2023/03/19 08:58:18;;;;;;;8.35;5.47;;;;;;;;;;5093071;28;20196;-70
2023/03/19 09:00:46;;;;;;;5.68;5.18;;;;;;;;;;5093150;28;20424;-70
2023/03/19 09:03:12;;;;;;;5.88;5.25;;;;;;;;;;5091446;28;20192;-70
2023/03/19 09:05:39;;;;;;;9.65;5.50;;;;;;;;;;5093066;28;20283;-70
2023/03/19 09:08:05;;;;;;;8.75;5.05;;;;;;;;;;5093015;28;20188;-70
2023/03/19 09:10:32;;;;;;;4.97;4.68;;;;;;;;;;5091169;28;20204;-70
2023/03/19 09:12:58;;;;;;;6.15;4.60;;;;;;;;;;5094523;28;20560;-70
2023/03/19 09:15:25;;;;;;;7.85;4.97;;;;;;;;;;5102630;28;20220;-70
2023/03/19 09:17:52;;;;;;;4.40;4.10;;;;;;;;;;5103387;28;20620;-70
2023/03/19 09:20:18;;;;;;;5.13;4.65;;;;;;;;;;5102547;28;20407;-70
2023/03/19 09:22:45;;;;;;;6.38;4.47;;;;;;;;;;5103037;28;20196;-70
2023/03/19 09:25:11;;;;;;;5.30;4.18;;;;;;;;;;5103113;28;20199;-70
2023/03/19 09:27:38;;;;;;;5.78;4.38;;;;;;;;;;5102723;28;20220;-70
2023/03/19 09:30:04;;;;;;;4.43;4.03;;;;;;;;;;5102723;28;20498;-70
2023/03/19 09:32:31;;;;;;;6.60;3.88;;;;;;;;;;5102656;28;20195;-70
2023/03/19 09:34:58;;;;;;;3.97;3.42;;;;;;;;;;5102450;28;20257;-70
2023/03/19 09:37:24;;;;;;;4.28;3.63;;;;;;;;;;5102444;28;20200;-70
2023/03/19 09:39:51;;;;;;;3.70;3.40;;;;;;;;;;5102543;28;20245;-71
2023/03/19 09:42:22;;;;;;;3.85;3.47;;;;;;;;;;5102566;28;20402;-71
2023/03/19 09:44:51;;;;;;;6.13;3.33;;;;;;;;;;5102543;28;20202;-71
2023/03/19 09:47:26;;;;;;;3.85;3.55;;;;;;;;;;5102416;28;20199;-70
2023/03/19 09:49:53;;;;;;;5.05;3.88;;;;;;;;;;5102488;28;20262;-69
2023/03/19 09:52:27;;;;;;;5.82;3.80;;;;;;;;;;5102666;28;20195;-69
2023/03/19 09:54:56;;;;;;;2.60;2.50;;;;;;;;;;5102416;28;20195;-61
2023/03/19 09:57:22;;;;;;;3.38;3.08;;;;;;;;;;5102235;28;20239;-61
2023/03/19 09:59:48;;;;;;;3.95;2.78;;;;;;;;;;5102134;28;20508;-60
2023/03/19 10:02:26;;;;;;;5.15;2.83;;;;;;;;;;5102242;28;20212;-61
2023/03/19 10:05:04;;;;;;;2.42;2.10;;;;;;;;;;5102260;28;20233;-61
2023/03/19 10:07:40;;;;;;;3.38;2.78;;;;;;;;;;5095519;28;20192;-61
2023/03/19 10:10:20;;;;;;;3.80;2.30;;;;;;;;;;5092532;28;20195;-61
2023/03/19 10:12:51;;;;;;;2.60;2.40;;;;;;;;;;5097061;28;20215;-61
2023/03/19 10:15:19;;;;;;;2.25;1.98;;;;;;;;;;5095597;28;20199;-61
2023/03/19 10:17:51;;;;;;;2.20;2.10;;;;;;;;;;5106390;28;20196;-61
2023/03/19 10:20:20;;;;;;;2.25;2.05;;;;;;;;;;5103142;28;20208;-61
2023/03/19 10:22:50;;;;;;;3.00;1.80;;;;;;;;;;5094819;28;20211;-61
2023/03/19 10:25:20;;;;;;;2.67;2.15;;;;;;;;;;5095032;28;20491;-61
2023/03/19 10:27:47;;;;;;;1.98;1.70;;;;;;;;;;5094786;28;20262;-61
2023/03/19 10:30:15;;;;;;;1.85;1.75;;;;;;;;;;5095042;28;20213;-61
2023/03/19 10:32:42;;;;;;;2.60;1.55;;;;;;;;;;5096456;28;20552;-61
2023/03/19 10:35:12;;;;;;;3.78;1.73;;;;;;;;;;5094866;28;20192;-61
2023/03/19 10:37:39;;;;;;;3.55;1.42;;;;;;;;;;5089194;28;20376;-61
2023/03/19 10:40:14;;;;;;;1.92;1.45;;;;;;;;;;5085403;28;20234;-61
2023/03/19 10:42:47;;;;;;;1.40;1.40;;;;;;;;;;5085508;28;20199;-61
2023/03/19 10:45:18;;;;;;;12.20;7.57;;;;;;;;;;5084301;28;20211;-60
2023/03/19 10:47:45;;;;;;;8.27;5.05;;;;;;;;;;5084592;28;20211;-61
2023/03/19 10:50:14;;;;;;;3.55;2.35;;;;;;;;;;5085259;28;20578;-60
2023/03/19 10:52:42;;;;;;;1.70;1.48;;;;;;;;;;5085108;28;20196;-62
2023/03/19 10:55:14;;;;;;;1.40;1.30;;;;;;;;;;5085438;28;20527;-61
2023/03/19 10:57:41;;;;;;;1.45;1.00;;;;;;;;;;5085242;28;20287;-61
2023/03/19 11:00:15;;;;;;;2.72;1.38;;;;;;;;;;5084443;28;20197;-62
2023/03/19 11:02:46;;;;;;;1.77;1.50;;;;;;;;;;5085290;28;20250;-61
2023/03/19 11:05:21;;;;;;;1.60;1.50;;;;;;;;;;5085125;28;20200;-62
2023/03/19 11:07:49;;;;;;;2.25;1.58;;;;;;;;;;5085020;28;20257;-61
2023/03/19 11:10:17;;;;;;;1.70;1.60;;;;;;;;;;5084618;28;20444;-61
2023/03/19 11:12:47;;;;;;;3.28;1.50;;;;;;;;;;5084858;28;20196;-61
2023/03/19 11:15:16;;;;;;;1.45;1.20;;;;;;;;;;5084888;28;20279;-61
2023/03/19 11:17:45;;;;;;;1.88;1.35;;;;;;;;;;5084559;28;20223;-61
2023/03/19 11:20:20;;;;;;;6.13;2.90;;;;;;;;;;5084642;28;20200;-61
2023/03/19 11:22:48;;;;;;;3.22;2.92;;;;;;;;;;5083519;28;20196;-61
2023/03/19 11:25:17;;;;;;;1.60;1.45;;;;;;;;;;5084553;28;20434;-61
2023/03/19 11:27:51;;;;;;;1.20;1.20;;;;;;;;;;5084627;28;20262;-61
2023/03/19 11:30:19;;;;;;;2.70;1.33;;;;;;;;;;5084355;28;20204;-61
2023/03/19 11:33:06;;;;;;;2.05;1.65;;;;;;;;;;5084502;28;20454;-61
2023/03/19 11:35:34;;;;;;;1.60;1.50;;;;;;;;;;5080717;28;20211;-61
2023/03/19 11:38:01;;;;;;;3.08;1.35;;;;;;;;;;5084576;28;20232;-61
2023/03/19 11:40:33;;;;;;;3.72;1.95;;;;;;;;;;5084133;28;20196;-62
2023/03/19 11:43:32;;;;;;;3.22;1.50;;;;;;;;;;5084470;28;20508;-61
2023/03/19 11:46:06;;;;;;;2.83;1.88;;;;;;;;;;5041988;28;20201;-61
2023/03/19 11:48:44;;;;;;;3.25;1.58;;;;;;;;;;5041994;28;20201;-61
2023/03/19 11:51:15;;;;;;;1.33;1.20;;;;;;;;;;5065496;28;20196;-61
2023/03/19 11:53:45;;;;;;;4.75;2.60;;;;;;;;;;5084024;28;20234;-61
2023/03/19 11:56:15;;;;;;;3.05;1.67;;;;;;;;;;5083904;28;20220;-61
2023/03/19 11:58:50;;;;;;;2.95;1.20;;;;;;;;;;5083951;28;20203;-61
2023/03/19 12:01:25;;;;;;;2.95;1.23;;;;;;;;;;5083926;28;20234;-61
2023/03/19 12:03:57;;;;;;;1.65;1.23;;;;;;;;;;5084001;28;20218;-61
2023/03/19 12:06:31;;;;;;;1.30;1.20;;;;;;;;;;5083854;28;20622;-61
2023/03/19 12:09:01;;;;;;;2.30;1.30;;;;;;;;;;5083988;28;20504;-61
2023/03/19 12:11:31;;;;;;;2.78;1.40;;;;;;;;;;5083711;28;20493;-61
2023/03/19 12:14:07;;;;;;;8.80;1.45;;;;;;;;;;5083857;28;20242;-61
2023/03/19 12:16:38;;;;;;;2.13;1.40;;;;;;;;;;5083518;28;20254;-61
2023/03/19 12:19:20;;;;;;;3.15;1.25;;;;;;;;;;5083428;28;20200;-61
2023/03/19 12:21:54;;;;;;;4.22;1.27;;;;;;;;;;5094024;28;20233;-61
2023/03/19 12:24:27;;;;;;;1.80;1.42;;;;;;;;;;5103825;28;20261;-61
2023/03/19 12:27:02;;;;;;;2.80;1.48;;;;;;;;;;5094527;28;20230;-61
2023/03/19 12:29:34;;;;;;;2.50;1.30;;;;;;;;;;5092492;28;20192;-61
2023/03/19 12:32:16;;;;;;;4.10;1.50;;;;;;;;;;5091984;28;20250;-62
2023/03/19 12:34:46;;;;;;;1.48;1.08;;;;;;;;;;5091704;28;20249;-61
2023/03/19 12:37:16;;;;;;;1.48;0.95;;;;;;;;;;5093006;28;20215;-61
2023/03/19 12:39:48;;;;;;;1.45;1.23;;;;;;;;;;5093681;28;20271;-61
2023/03/19 12:42:16;;;;;;;1.23;1.23;;;;;;;;;;5093156;28;20230;-61
2023/03/19 12:44:44;;;;;;;1.88;1.10;;;;;;;;;;5091016;28;20553;-61
2023/03/19 12:47:14;;;;;;;2.55;1.20;;;;;;;;;;5083276;28;20484;-61
2023/03/19 12:49:42;;;;;;;2.45;1.38;;;;;;;;;;5082834;28;20197;-61
2023/03/19 12:52:12;;;;;;;4.00;1.33;;;;;;;;;;5082926;28;20371;-61
2023/03/19 12:54:41;;;;;;;2.38;1.17;;;;;;;;;;5085499;28;20207;-62
2023/03/19 12:57:10;;;;;;;2.47;1.20;;;;;;;;;;5082367;28;20442;-62
2023/03/19 12:59:37;;;;;;;1.58;1.33;;;;;;;;;;5082205;28;20196;-62
2023/03/19 13:02:10;;;;;;;2.40;1.30;;;;;;;;;;5082498;28;20438;-61
2023/03/19 13:04:39;;;;;;;1.20;1.10;;;;;;;;;;5082316;28;20430;-61
2023/03/19 13:07:08;;;;;;;2.90;1.35;;;;;;;;;;5081909;28;20193;-61
2023/03/19 13:09:38;;;;;;;2.05;1.58;;;;;;;;;;5082491;28;20408;-62
2023/03/19 13:12:09;;;;;;;1.60;1.50;;;;;;;;;;5082588;28;20203;-61
2023/03/19 13:14:38;;;;;;;1.35;1.25;;;;;;;;;;5082561;28;20196;-61
2023/03/19 13:17:09;;;;;;;2.50;1.45;;;;;;;;;;5082636;28;20262;-60
2023/03/19 13:19:40;;;;;;;4.65;1.70;;;;;;;;;;5082346;28;20196;-60
2023/03/19 13:22:11;;;;;;;3.33;1.40;;;;;;;;;;5082510;28;20200;-61
2023/03/19 13:24:38;;;;;;;2.85;1.27;;;;;;;;;;5082663;28;20415;-61
2023/03/19 13:27:06;;;;;;;1.42;1.25;;;;;;;;;;5082396;28;20530;-61
2023/03/19 13:29:35;;;;;;;2.35;1.50;;;;;;;;;;5082522;28;20402;-61
2023/03/19 13:32:04;;;;;;;2.40;1.45;;;;;;;;;;5082768;28;20231;-60
2023/03/19 13:34:32;;;;;;;3.63;1.40;;;;;;;;;;5082241;28;20200;-61
2023/03/19 13:37:01;;;;;;;3.00;1.60;;;;;;;;;;5082467;28;20220;-61
2023/03/19 13:39:31;;;;;;;3.38;1.50;;;;;;;;;;5082387;28;20507;-61
2023/03/19 13:42:06;;;;;;;1.70;1.40;;;;;;;;;;5082317;28;20287;-61
2023/03/19 13:44:33;;;;;;;1.33;1.30;;;;;;;;;;5082345;28;20203;-60
2023/03/19 13:47:01;;;;;;;4.35;1.70;;;;;;;;;;5081291;28;20196;-61
2023/03/19 13:49:32;;;;;;;1.30;1.30;;;;;;;;;;5081996;28;20197;-61
2023/03/19 13:52:00;;;;;;;2.60;1.27;;;;;;;;;;5081994;28;20365;-61
2023/03/19 13:54:35;;;;;;;1.50;1.40;;;;;;;;;;5081827;28;20504;-61
2023/03/19 13:57:07;;;;;;;1.90;1.20;;;;;;;;;;5081837;28;20389;-61
2023/03/19 13:59:34;;;;;;;4.63;2.08;;;;;;;;;;5081623;28;20234;-61
2023/03/19 14:02:01;;;;;;;1.60;1.50;;;;;;;;;;5081822;28;20208;-61
2023/03/19 14:04:29;;;;;;;1.40;1.15;;;;;;;;;;5081772;28;20507;-61
2023/03/19 14:06:56;;;;;;;3.03;1.25;;;;;;;;;;5081727;28;20192;-61
2023/03/19 14:09:38;;;;;;;2.47;1.10;;;;;;;;;;5081605;28;20215;-61
2023/03/19 14:12:29;;;;;;;1.10;1.10;;;;;;;;;;5081597;28;20521;-60
2023/03/19 14:14:56;;;;;;;2.75;1.75;;;;;;;;;;5081905;28;20200;-61
2023/03/19 14:17:25;;;;;;;1.17;1.10;;;;;;;;;;5081498;28;20405;-61
2023/03/19 14:19:52;;;;;;;5.10;1.77;;;;;;;;;;5081956;28;20196;-61
2023/03/19 14:22:20;;;;;;;2.80;1.23;;;;;;;;;;5081519;28;20200;-61
2023/03/19 14:24:56;;;;;;;1.55;1.25;;;;;;;;;;5081872;28;20205;-61
2023/03/19 14:27:25;;;;;;;2.10;1.08;;;;;;;;;;5081786;28;20409;-61
2023/03/19 14:29:54;;;;;;;1.15;1.13;;;;;;;;;;5081392;28;20504;-61
2023/03/19 14:32:31;;;;;;;1.60;0.95;;;;;;;;;;5081625;28;20200;-61
2023/03/19 14:34:58;;;;;;;1.77;1.10;;;;;;;;;;5081325;28;20196;-61
2023/03/19 14:37:27;;;;;;;0.98;0.90;;;;;;;;;;5081463;28;20216;-61
2023/03/19 14:39:58;;;;;;;2.47;1.20;;;;;;;;;;5081715;28;20506;-61
2023/03/19 14:42:26;;;;;;;0.98;0.98;;;;;;;;;;5081574;28;20242;-61
2023/03/19 14:45:19;;;;;;;1.27;0.95;;;;;;;;;;5081430;28;20234;-61
2023/03/19 14:47:57;;;;;;;1.00;1.00;;;;;;;;;;5081244;28;20192;-61